Time;durP1;ratioP1;P1;durP2;ratioP2;P2;SDS_P1;SDS_P2;PMS_P1;PMS_P2;Temp;Humidity;BMP_temperature;BMP_pressure;BME280_temperature;BME280_humidity;BME280_pressure;Samples;Min_cycle;Max_cycle;Signal;HPM_P1;HPM_P2
2023/04/21 00:02:26;;;;;;;28.93;19.00;;;9.00;99.90;;;;;;5019800;28;20491;-83
2023/04/21 00:04:52;;;;;;;26.03;19.07;;;9.00;99.90;;;;;;5020024;28;20530;-83
2023/04/21 00:07:21;;;;;;;28.17;21.70;;;9.00;99.90;;;;;;5020590;28;20486;-82
2023/04/21 00:09:48;;;;;;;32.43;22.33;;;9.00;99.90;;;;;;5019424;28;20829;-82
2023/04/21 00:12:16;;;;;;;28.00;20.50;;;8.90;99.90;;;;;;5018442;28;20486;-82
2023/04/21 00:14:43;;;;;;;35.10;24.60;;;9.00;99.90;;;;;;5019078;28;20465;-83
2023/04/21 00:17:10;;;;;;;32.67;22.17;;;8.90;99.90;;;;;;5000609;28;20451;-83
2023/04/21 00:19:37;;;;;;;28.67;21.57;;;8.90;99.90;;;;;;5007644;28;20506;-82
2023/04/21 00:22:07;;;;;;;28.17;20.50;;;9.00;99.90;;;;;;5018521;28;20546;-82
2023/04/21 00:24:33;;;;;;;28.17;20.17;;;9.00;99.90;;;;;;5017884;28;20482;-81
2023/04/21 00:27:00;;;;;;;33.53;23.00;;;9.00;99.90;;;;;;5017953;28;20978;-80
2023/04/21 00:29:28;;;;;;;30.17;21.03;;;9.00;99.90;;;;;;5017911;28;20846;-80
2023/04/21 00:31:55;;;;;;;35.23;23.67;;;9.00;99.90;;;;;;5017101;28;20485;-80
2023/04/21 00:34:22;;;;;;;32.07;21.30;;;9.00;99.90;;;;;;5018122;28;20474;-82
2023/04/21 00:36:49;;;;;;;30.57;20.97;;;9.00;99.90;;;;;;5017680;28;20453;-81
2023/04/21 00:39:15;;;;;;;25.73;20.10;;;9.00;99.90;;;;;;5017551;28;20455;-81
2023/04/21 00:41:43;;;;;;;29.30;20.43;;;9.00;99.90;;;;;;5016335;28;21005;-82
2023/04/21 00:44:10;;;;;;;28.87;22.10;;;9.00;99.90;;;;;;5017675;28;20548;-82
2023/04/21 00:46:38;;;;;;;34.30;23.10;;;9.00;99.90;;;;;;5017495;28;20454;-80
2023/04/21 00:49:06;;;;;;;31.30;22.63;;;9.00;99.90;;;;;;5019036;28;20493;-82
2023/04/21 00:51:35;;;;;;;31.60;20.97;;;9.00;99.90;;;;;;5016284;28;20476;-81
2023/04/21 00:54:04;;;;;;;32.20;22.40;;;9.10;99.90;;;;;;5019423;28;20467;-82
2023/04/21 00:56:33;;;;;;;35.40;23.23;;;9.00;99.90;;;;;;5017565;28;20455;-82
2023/04/21 00:59:00;;;;;;;33.10;24.63;;;9.00;99.90;;;;;;5018363;28;20461;-82
2023/04/21 01:01:28;;;;;;;32.60;22.83;;;8.90;99.90;;;;;;5017149;28;20472;-81
2023/04/21 01:03:59;;;;;;;27.87;20.97;;;8.90;99.90;;;;;;5018208;28;20514;-81
2023/04/21 01:06:27;;;;;;;29.67;20.77;;;9.00;99.90;;;;;;5005954;28;20452;-81
2023/04/21 01:08:55;;;;;;;31.97;22.77;;;9.00;99.90;;;;;;4998939;28;20491;-81
2023/04/21 01:11:22;;;;;;;34.13;22.90;;;9.00;99.90;;;;;;5013029;28;20483;-81
2023/04/21 01:13:52;;;;;;;36.13;24.87;;;9.00;99.90;;;;;;5017958;28;20517;-81
2023/04/21 01:16:19;;;;;;;31.27;22.23;;;9.00;99.90;;;;;;5017664;28;20952;-81
2023/04/21 01:18:45;;;;;;;38.73;25.60;;;9.00;99.90;;;;;;5017689;28;21006;-82
2023/04/21 01:21:14;;;;;;;34.40;23.03;;;8.90;99.90;;;;;;5016138;28;20486;-80
2023/04/21 01:23:42;;;;;;;31.93;23.27;;;9.00;99.90;;;;;;5017294;28;21026;-81
2023/04/21 01:26:09;;;;;;;36.80;25.03;;;8.90;99.90;;;;;;5016738;28;20549;-81
2023/04/21 01:28:36;;;;;;;34.10;23.07;;;8.80;99.90;;;;;;5017241;28;20494;-80
2023/04/21 01:31:04;;;;;;;32.57;24.60;;;8.90;99.90;;;;;;5016977;28;20490;-81
2023/04/21 01:33:31;;;;;;;33.93;23.40;;;8.90;99.90;;;;;;5017744;28;20448;-80
2023/04/21 01:35:59;;;;;;;33.43;23.33;;;9.00;99.90;;;;;;5016788;28;20462;-81
2023/04/21 01:38:26;;;;;;;35.70;24.40;;;9.00;99.90;;;;;;5016849;28;20482;-82
2023/04/21 01:40:55;;;;;;;34.60;24.80;;;9.00;99.90;;;;;;5016432;28;20478;-80
2023/04/21 01:43:24;;;;;;;40.60;25.93;;;8.90;99.90;;;;;;5017108;28;20997;-81
2023/04/21 01:45:51;;;;;;;35.30;25.23;;;8.80;99.90;;;;;;5017624;28;20968;-81
2023/04/21 01:48:18;;;;;;;33.70;23.60;;;8.80;99.90;;;;;;5017082;28;20488;-81
2023/04/21 01:50:45;;;;;;;34.83;25.83;;;8.90;99.90;;;;;;5016347;28;20485;-81
2023/04/21 01:53:12;;;;;;;37.00;24.47;;;8.90;99.90;;;;;;5017239;28;20837;-80
2023/04/21 01:55:39;;;;;;;36.17;25.67;;;8.80;99.90;;;;;;5016813;28;20543;-81
2023/04/21 01:58:07;;;;;;;32.87;22.93;;;8.80;99.90;;;;;;5017123;28;20489;-81
2023/04/21 02:00:36;;;;;;;38.40;24.07;;;8.80;99.90;;;;;;4995978;28;20483;-85
2023/04/21 02:03:03;;;;;;;32.20;24.17;;;8.80;99.90;;;;;;5016079;28;20494;-82
2023/04/21 02:05:30;;;;;;;35.67;25.70;;;8.80;99.90;;;;;;5016162;28;20461;-83
2023/04/21 02:07:57;;;;;;;34.87;24.60;;;8.70;99.90;;;;;;5015880;28;20456;-83
2023/04/21 02:10:24;;;;;;;35.47;23.77;;;8.70;99.90;;;;;;5016237;28;21074;-80
2023/04/21 02:12:51;;;;;;;37.80;25.77;;;8.80;99.90;;;;;;5015347;28;20459;-81
2023/04/21 02:15:19;;;;;;;34.43;24.43;;;8.80;99.90;;;;;;5017375;28;20945;-83
2023/04/21 02:17:46;;;;;;;35.27;24.73;;;8.80;99.90;;;;;;5016553;28;20468;-81
2023/04/21 02:20:13;;;;;;;34.57;25.60;;;8.80;99.90;;;;;;5016217;28;21017;-80
2023/04/21 02:22:40;;;;;;;32.97;25.37;;;8.90;99.90;;;;;;5015443;28;20486;-82
2023/04/21 02:25:07;;;;;;;32.63;25.07;;;8.90;99.90;;;;;;5015824;28;20459;-81
2023/04/21 02:27:34;;;;;;;38.67;25.10;;;8.90;99.90;;;;;;5012432;28;20459;-81
2023/04/21 02:30:01;;;;;;;33.90;24.40;;;8.90;99.90;;;;;;5016771;28;20494;-81
2023/04/21 02:32:29;;;;;;;34.97;24.30;;;8.90;99.90;;;;;;5014862;28;20457;-81
2023/04/21 02:34:56;;;;;;;37.17;23.47;;;8.90;99.90;;;;;;5016474;28;20459;-81
2023/04/21 02:37:24;;;;;;;39.40;26.63;;;8.90;99.90;;;;;;5015925;28;20460;-82
2023/04/21 02:39:50;;;;;;;35.03;25.63;;;8.90;99.90;;;;;;5016574;28;20471;-82
2023/04/21 02:42:17;;;;;;;33.23;27.07;;;8.80;99.90;;;;;;5014755;28;20549;-82
2023/04/21 02:44:44;;;;;;;38.57;25.47;;;8.80;99.90;;;;;;5015511;28;20460;-81
2023/04/21 02:47:11;;;;;;;40.87;29.10;;;8.80;99.90;;;;;;5014723;28;20451;-82
2023/04/21 02:49:42;;;;;;;39.83;26.50;;;8.80;99.90;;;;;;5015347;28;20496;-82
2023/04/21 02:52:09;;;;;;;38.07;25.50;;;8.70;99.90;;;;;;5014183;28;20810;-81
2023/04/21 02:54:35;;;;;;;40.17;27.50;;;8.80;99.90;;;;;;5015140;28;20970;-81
2023/04/21 02:57:02;;;;;;;38.53;27.00;;;8.80;99.90;;;;;;5014524;28;20469;-83
2023/04/21 02:59:29;;;;;;;41.53;29.33;;;8.80;99.90;;;;;;5014923;28;20450;-82
2023/04/21 03:01:56;;;;;;;46.20;29.97;;;8.70;99.90;;;;;;5013512;28;20485;-82
2023/04/21 03:04:24;;;;;;;42.37;27.33;;;8.70;99.90;;;;;;5015152;28;20465;-81
2023/04/21 03:06:52;;;;;;;36.23;25.43;;;8.80;99.90;;;;;;5001749;28;20623;-82
2023/04/21 03:09:19;;;;;;;39.27;28.17;;;8.80;99.90;;;;;;4998375;28;20488;-81
2023/04/21 03:11:46;;;;;;;42.63;29.57;;;8.80;99.90;;;;;;5014077;28;20482;-81
2023/04/21 03:14:13;;;;;;;38.33;28.93;;;8.80;99.90;;;;;;5014451;28;20458;-82
2023/04/21 03:16:40;;;;;;;40.50;27.43;;;8.80;99.90;;;;;;5013742;28;20469;-81
2023/04/21 03:19:06;;;;;;;38.23;27.50;;;8.90;99.90;;;;;;5015246;28;20457;-83
2023/04/21 03:21:36;;;;;;;37.73;26.50;;;8.90;99.90;;;;;;5017127;28;20492;-81
2023/04/21 03:24:05;;;;;;;38.17;29.37;;;8.90;99.90;;;;;;5018572;28;20495;-82
2023/04/21 03:26:32;;;;;;;35.47;25.57;;;8.90;99.90;;;;;;5007482;28;20455;-82
2023/04/21 03:28:59;;;;;;;35.87;27.10;;;8.90;99.90;;;;;;5006180;28;20490;-82
2023/04/21 03:31:26;;;;;;;37.60;28.00;;;9.00;99.90;;;;;;5017364;28;20534;-81
2023/04/21 03:33:52;;;;;;;40.90;29.63;;;9.00;99.90;;;;;;5018189;28;20812;-81
2023/04/21 03:36:19;;;;;;;42.60;28.40;;;9.00;99.90;;;;;;5017837;28;20456;-83
2023/04/21 03:38:46;;;;;;;42.43;29.87;;;9.00;99.90;;;;;;5017482;28;20537;-83
2023/04/21 03:41:14;;;;;;;41.00;29.23;;;9.00;99.90;;;;;;5016769;28;20490;-81
2023/04/21 03:43:41;;;;;;;38.70;28.33;;;9.00;99.90;;;;;;5017376;28;20463;-81
2023/04/21 03:46:08;;;;;;;43.33;30.47;;;8.90;99.90;;;;;;5017848;28;20451;-83
2023/04/21 03:48:34;;;;;;;39.00;28.43;;;8.90;99.90;;;;;;5017031;28;20458;-82
2023/04/21 03:51:02;;;;;;;40.27;28.40;;;8.90;99.90;;;;;;5017226;28;20477;-81
2023/04/21 03:53:28;;;;;;;39.53;28.23;;;8.90;99.90;;;;;;5017959;28;20981;-82
2023/04/21 03:55:55;;;;;;;42.07;28.90;;;8.90;99.90;;;;;;5018194;28;20455;-80
2023/04/21 03:58:24;;;;;;;39.67;27.50;;;9.00;99.90;;;;;;5017536;28;20456;-83
2023/04/21 04:00:50;;;;;;;43.50;29.17;;;8.90;99.90;;;;;;5016763;28;20489;-81
2023/04/21 04:03:17;;;;;;;48.77;30.37;;;9.00;99.90;;;;;;5018083;28;20955;-80
2023/04/21 04:05:44;;;;;;;42.87;28.87;;;8.90;99.90;;;;;;5014676;28;20958;-81
2023/04/21 04:08:11;;;;;;;43.47;29.10;;;8.90;99.90;;;;;;5004714;28;20454;-82
2023/04/21 04:10:37;;;;;;;41.67;28.47;;;9.00;99.90;;;;;;5017184;28;20498;-81
2023/04/21 04:13:04;;;;;;;39.60;28.97;;;9.00;99.90;;;;;;5018139;28;20452;-81
2023/04/21 04:15:33;;;;;;;47.30;30.33;;;9.00;99.90;;;;;;5016400;28;20490;-81
2023/04/21 04:18:00;;;;;;;44.13;30.07;;;9.00;99.90;;;;;;5002022;28;20464;-81
2023/04/21 04:20:27;;;;;;;42.53;29.40;;;9.10;99.90;;;;;;5015525;28;20481;-80
2023/04/21 04:22:54;;;;;;;42.40;27.83;;;9.10;99.90;;;;;;5017052;28;20468;-81
2023/04/21 04:25:20;;;;;;;38.40;28.47;;;9.10;99.90;;;;;;5017321;28;20546;-81
2023/04/21 04:27:49;;;;;;;39.43;28.97;;;9.10;99.90;;;;;;5016899;28;20466;-81
2023/04/21 04:30:16;;;;;;;45.20;29.57;;;9.10;99.90;;;;;;5017099;28;20588;-82
2023/04/21 04:32:44;;;;;;;41.27;29.00;;;9.10;99.90;;;;;;5015380;28;20464;-82
2023/04/21 04:35:11;;;;;;;43.73;28.17;;;9.00;99.90;;;;;;5017115;28;20454;-81
2023/04/21 04:37:40;;;;;;;35.30;26.63;;;9.10;99.90;;;;;;5016313;28;21013;-82
2023/04/21 04:40:10;;;;;;;43.67;29.73;;;9.10;99.90;;;;;;5017612;28;20511;-82
2023/04/21 04:42:38;;;;;;;39.53;27.70;;;9.10;99.90;;;;;;5017597;28;21024;-81
2023/04/21 04:45:07;;;;;;;41.70;29.83;;;9.10;99.90;;;;;;5018325;28;20465;-82
2023/04/21 04:47:33;;;;;;;36.80;27.73;;;9.20;99.90;;;;;;5009566;28;20515;-81
2023/04/21 04:50:02;;;;;;;36.50;25.77;;;9.20;99.90;;;;;;5015883;28;20520;-80
2023/04/21 04:52:29;;;;;;;35.70;26.67;;;9.20;99.90;;;;;;5015641;28;20827;-80
2023/04/21 04:54:56;;;;;;;41.23;28.57;;;9.20;99.90;;;;;;5016235;28;20971;-80
2023/04/21 04:57:22;;;;;;;39.50;27.17;;;9.30;99.90;;;;;;5020118;28;20511;-80
2023/04/21 04:59:54;;;;;;;38.40;27.80;;;9.20;99.90;;;;;;5021475;28;20450;-80
2023/04/21 05:02:21;;;;;;;33.20;26.37;;;9.20;99.90;;;;;;5015154;28;20548;-79
2023/04/21 05:04:48;;;;;;;38.30;27.80;;;9.30;99.90;;;;;;5015343;28;20518;-79
2023/04/21 05:07:16;;;;;;;40.70;27.70;;;9.20;99.90;;;;;;5003449;28;20471;-80
2023/04/21 05:09:43;;;;;;;38.40;28.40;;;9.20;99.90;;;;;;4991220;28;20499;-78
2023/04/21 05:12:10;;;;;;;46.80;30.10;;;9.20;99.90;;;;;;5015947;28;20489;-79
2023/04/21 05:14:36;;;;;;;36.90;27.03;;;9.20;99.90;;;;;;5015264;28;20460;-80
2023/04/21 05:17:03;;;;;;;36.43;27.17;;;9.30;99.90;;;;;;5013265;28;21225;-79
2023/04/21 05:19:30;;;;;;;36.87;26.23;;;9.30;99.90;;;;;;5010307;28;20467;-80
2023/04/21 05:22:00;;;;;;;43.13;30.30;;;9.20;99.90;;;;;;5015058;28;20616;-81
2023/04/21 05:24:28;;;;;;;42.33;29.30;;;9.20;99.90;;;;;;5023750;28;20478;-80
2023/04/21 05:26:55;;;;;;;38.83;30.67;;;9.10;99.90;;;;;;5019261;28;20502;-80
2023/04/21 05:29:22;;;;;;;39.77;28.87;;;9.10;99.90;;;;;;5019875;28;20527;-78
2023/04/21 05:31:49;;;;;;;37.27;25.73;;;9.10;99.90;;;;;;5017930;28;20483;-78
2023/04/21 05:34:15;;;;;;;43.87;28.50;;;9.10;99.90;;;;;;5016140;28;20460;-80
2023/04/21 05:36:42;;;;;;;39.80;30.20;;;9.10;99.90;;;;;;5015031;28;20970;-79
2023/04/21 05:39:09;;;;;;;44.60;29.23;;;9.10;99.90;;;;;;5020894;28;20472;-80
2023/04/21 05:41:37;;;;;;;39.10;27.70;;;9.10;99.90;;;;;;5020926;28;20483;-80
2023/04/21 05:44:04;;;;;;;38.90;27.60;;;9.10;99.90;;;;;;5008303;28;20471;-80
2023/04/21 05:46:33;;;;;;;43.10;27.67;;;9.10;99.90;;;;;;5013997;28;20460;-79
2023/04/21 05:49:01;;;;;;;42.67;29.33;;;9.00;99.90;;;;;;5012170;28;20472;-78
2023/04/21 05:51:28;;;;;;;46.00;30.97;;;9.10;99.90;;;;;;5018116;28;20482;-80
2023/04/21 05:53:54;;;;;;;52.03;32.33;;;9.10;99.90;;;;;;5022383;28;20827;-80
2023/04/21 05:56:21;;;;;;;47.33;32.17;;;9.10;99.90;;;;;;5017578;28;20986;-81
2023/04/21 05:58:49;;;;;;;44.80;30.03;;;9.20;99.90;;;;;;5021438;28;20471;-80
2023/04/21 06:01:18;;;;;;;49.90;29.70;;;9.40;99.90;;;;;;5018530;28;20865;-80
2023/04/21 06:03:47;;;;;;;45.37;29.87;;;9.50;99.90;;;;;;5020142;28;20449;-82
2023/04/21 06:06:14;;;;;;;41.80;29.70;;;9.60;99.90;;;;;;5016461;28;20511;-81
2023/04/21 06:08:41;;;;;;;52.77;34.30;;;9.70;99.90;;;;;;5019225;28;20476;-82
2023/04/21 06:11:08;;;;;;;44.80;33.37;;;9.80;99.90;;;;;;5009641;28;20493;-79
2023/04/21 06:13:35;;;;;;;42.80;30.00;;;9.90;99.90;;;;;;5018498;28;20460;-81
2023/04/21 06:16:03;;;;;;;41.83;28.60;;;9.90;99.90;;;;;;5024765;28;21093;-83
2023/04/21 06:18:30;;;;;;;45.50;32.07;;;10.20;99.90;;;;;;5016788;28;20454;-82
2023/04/21 06:20:56;;;;;;;40.13;29.00;;;10.30;99.90;;;;;;5013914;28;20572;-82
2023/04/21 06:23:23;;;;;;;35.23;27.03;;;10.50;99.90;;;;;;5010173;28;20463;-82
2023/04/21 06:26:00;;;;;;;38.10;27.53;;;10.70;99.90;;;;;;5023197;28;20464;-82
2023/04/21 06:28:26;;;;;;;39.17;28.27;;;10.80;99.90;;;;;;5019254;28;20483;-82
2023/04/21 06:30:53;;;;;;;38.60;27.60;;;10.80;99.90;;;;;;5013881;28;20569;-82
2023/04/21 06:33:21;;;;;;;38.43;28.50;;;10.90;99.90;;;;;;5017053;28;20465;-81
2023/04/21 06:35:48;;;;;;;39.97;26.43;;;10.90;99.90;;;;;;5015072;28;20814;-80
2023/04/21 06:38:15;;;;;;;37.73;27.87;;;11.00;99.90;;;;;;5025101;28;20504;-82
2023/04/21 06:40:42;;;;;;;36.00;28.90;;;11.20;99.90;;;;;;5020514;28;20484;-82
2023/04/21 06:43:09;;;;;;;33.63;26.37;;;11.40;99.90;;;;;;5024439;28;20543;-82
2023/04/21 06:45:36;;;;;;;36.30;27.80;;;11.50;99.90;;;;;;5029197;28;20565;-78
2023/04/21 06:48:02;;;;;;;34.63;27.40;;;11.70;99.90;;;;;;5023810;28;20459;-80
2023/04/21 06:50:31;;;;;;;35.47;27.00;;;11.80;99.90;;;;;;5028380;28;20566;-79
2023/04/21 06:52:57;;;;;;;37.67;29.03;;;11.90;99.90;;;;;;5021151;28;20466;-82
2023/04/21 06:55:24;;;;;;;37.70;28.60;;;11.90;99.90;;;;;;5024574;28;20451;-82
2023/04/21 06:57:51;;;;;;;32.33;26.83;;;12.00;99.90;;;;;;5021324;28;20484;-82
2023/04/21 07:00:18;;;;;;;34.30;27.10;;;12.00;99.90;;;;;;5018947;28;20478;-81
2023/04/21 07:02:45;;;;;;;29.80;23.80;;;12.10;99.90;;;;;;5019047;28;20458;-82
2023/04/21 07:05:12;;;;;;;28.67;24.33;;;12.30;99.90;;;;;;5020286;28;20554;-82
2023/04/21 07:07:40;;;;;;;31.93;24.60;;;12.30;99.90;;;;;;5024862;28;20464;-82
2023/04/21 07:10:07;;;;;;;29.70;24.57;;;12.30;99.90;;;;;;5027492;28;20867;-82
2023/04/21 07:12:34;;;;;;;30.70;24.57;;;12.40;99.90;;;;;;5032004;28;20452;-82
2023/04/21 07:15:01;;;;;;;28.30;24.13;;;12.50;99.90;;;;;;5030104;28;20491;-81
2023/04/21 07:17:28;;;;;;;28.40;23.30;;;12.60;99.90;;;;;;5020991;28;20459;-83
2023/04/21 07:19:55;;;;;;;32.13;25.73;;;12.60;99.90;;;;;;5022647;28;20458;-82
2023/04/21 07:22:22;;;;;;;24.40;21.67;;;12.50;99.90;;;;;;5019186;28;20541;-83
2023/04/21 07:24:50;;;;;;;29.50;23.83;;;12.60;99.90;;;;;;5022374;28;20526;-82
2023/04/21 07:27:18;;;;;;;29.00;23.30;;;12.60;99.90;;;;;;5021269;28;20461;-83
2023/04/21 07:29:45;;;;;;;25.80;22.33;;;12.60;99.90;;;;;;5026738;28;20455;-83
2023/04/21 07:32:12;;;;;;;30.37;24.37;;;12.80;99.90;;;;;;5018117;28;20469;-82
2023/04/21 07:34:38;;;;;;;27.07;22.03;;;13.10;97.00;;;;;;5018951;28;20543;-81
2023/04/21 07:37:05;;;;;;;29.27;23.03;;;12.90;95.50;;;;;;5020080;28;20455;-82
2023/04/21 07:39:32;;;;;;;27.30;22.67;;;13.20;94.40;;;;;;5021889;28;20534;-83
2023/04/21 07:42:00;;;;;;;27.70;24.37;;;13.20;80.20;;;;;;5013859;28;20485;-78
2023/04/21 07:44:28;;;;;;;29.47;22.13;;;13.20;46.00;;;;;;5018332;28;20452;-83
2023/04/21 07:46:55;;;;;;;30.90;24.50;;;13.40;47.50;;;;;;5020120;28;20459;-82
2023/04/21 07:49:21;;;;;;;27.70;23.43;;;13.40;12.00;;;;;;5022684;28;20464;-82
2023/04/21 07:51:48;;;;;;;25.37;21.40;;;13.70;22.80;;;;;;5017192;28;20491;-82
2023/04/21 07:54:15;;;;;;;26.33;22.10;;;13.90;26.80;;;;;;5026997;28;20481;-84
2023/04/21 07:56:42;;;;;;;28.33;21.80;;;14.10;1.00;;;;;;5019611;28;21156;-83
2023/04/21 07:59:10;;;;;;;23.20;20.40;;;14.30;1.00;;;;;;5018398;28;20456;-83
2023/04/21 08:01:37;;;;;;;27.03;21.87;;;14.40;1.00;;;;;;5021556;28;20471;-80
2023/04/21 08:04:04;;;;;;;28.10;22.20;;;14.20;1.00;;;;;;5017906;28;20995;-83
2023/04/21 08:06:31;;;;;;;29.37;23.73;;;14.10;1.00;;;;;;5021749;28;20455;-83
2023/04/21 08:08:58;;;;;;;31.43;22.90;;;14.00;1.00;;;;;;5023191;28;20516;-83
2023/04/21 08:11:27;;;;;;;26.33;21.93;;;14.00;1.00;;;;;;5027087;28;21012;-81
2023/04/21 08:13:54;;;;;;;29.03;23.13;;;13.90;1.00;;;;;;5022739;28;20511;-83
2023/04/21 08:16:22;;;;;;;27.57;21.03;;;13.80;1.00;;;;;;5014688;28;20446;-84
2023/04/21 08:18:49;;;;;;;28.80;22.80;;;13.60;1.00;;;;;;5021315;28;20463;-82
2023/04/21 08:21:15;;;;;;;28.53;23.17;;;13.60;1.00;;;;;;5016975;28;21008;-81
2023/04/21 08:23:42;;;;;;;25.90;21.20;;;13.60;1.00;;;;;;5026148;28;20482;-82
2023/04/21 08:26:09;;;;;;;28.67;24.50;;;13.70;1.00;;;;;;5022524;28;20470;-83
2023/04/21 08:28:36;;;;;;;29.50;22.83;;;13.70;10.70;;;;;;5010459;28;20552;-82
2023/04/21 08:31:04;;;;;;;29.50;23.73;;;13.80;1.00;;;;;;5016872;28;20541;-83
2023/04/21 08:33:32;;;;;;;29.40;22.20;;;13.90;1.00;;;;;;5020260;28;20449;-83
2023/04/21 08:35:59;;;;;;;24.20;21.63;;;14.10;1.00;;;;;;5013946;28;20467;-82
2023/04/21 08:38:25;;;;;;;28.93;21.80;;;14.10;1.00;;;;;;5020509;28;20478;-83
2023/04/21 08:40:53;;;;;;;30.07;21.20;;;14.10;1.00;;;;;;5017586;28;20565;-83
2023/04/21 08:43:20;;;;;;;26.13;20.90;;;14.10;1.00;;;;;;5020595;28;20461;-83
2023/04/21 08:45:47;;;;;;;25.80;23.10;;;13.90;1.00;;;;;;5023360;28;20462;-82
2023/04/21 08:48:17;;;;;;;22.43;19.97;;;13.60;1.00;;;;;;5025058;28;20480;-83
2023/04/21 08:50:48;;;;;;;29.27;21.23;;;13.60;1.00;;;;;;5020339;28;21134;-83
2023/04/21 08:53:15;;;;;;;25.30;20.53;;;13.70;1.00;;;;;;5021454;28;20466;-84
2023/04/21 08:55:43;;;;;;;26.27;20.60;;;13.80;1.00;;;;;;5017938;28;20445;-84
2023/04/21 08:58:10;;;;;;;25.17;20.03;;;13.80;1.00;;;;;;5017594;28;20469;-82
2023/04/21 09:00:38;;;;;;;26.63;21.67;;;13.90;1.00;;;;;;5016524;28;20475;-82
2023/04/21 09:03:07;;;;;;;27.00;22.33;;;14.00;1.00;;;;;;5006652;28;20455;-81
2023/04/21 09:05:36;;;;;;;27.00;21.93;;;14.10;1.00;;;;;;5019445;28;20466;-84
2023/04/21 09:08:11;;;;;;;25.93;22.03;;;14.10;1.00;;;;;;5017730;28;20461;-82
2023/04/21 09:10:45;;;;;;;24.20;21.13;;;14.10;1.00;;;;;;5011365;28;20499;-83
2023/04/21 09:13:12;;;;;;;25.10;20.80;;;14.00;1.00;;;;;;5001420;28;20463;-82
2023/04/21 09:15:40;;;;;;;28.33;23.07;;;14.00;1.00;;;;;;5012921;28;20449;-83
2023/04/21 09:18:12;;;;;;;27.00;23.83;;;14.10;1.00;;;;;;5015609;28;20496;-83
2023/04/21 09:20:40;;;;;;;25.20;21.27;;;14.10;1.00;;;;;;5015571;28;20482;-82
2023/04/21 09:23:07;;;;;;;25.30;18.93;;;14.30;1.00;;;;;;5020745;28;20453;-83
2023/04/21 09:25:35;;;;;;;23.83;20.90;;;14.50;1.00;;;;;;5014877;28;20971;-83
2023/04/21 09:28:03;;;;;;;23.07;19.43;;;14.50;1.00;;;;;;5005396;28;20484;-83
2023/04/21 09:30:35;;;;;;;26.03;21.17;;;14.80;1.00;;;;;;5005032;28;20504;-80
2023/04/21 09:33:02;;;;;;;23.60;21.10;;;14.70;1.00;;;;;;5017581;28;20962;-82
2023/04/21 09:35:33;;;;;;;24.90;20.03;;;14.70;1.00;;;;;;5015713;28;20456;-78
2023/04/21 09:38:01;;;;;;;25.07;21.00;;;14.90;1.00;;;;;;5013780;28;20467;-81
2023/04/21 09:40:30;;;;;;;24.40;21.20;;;15.00;1.00;;;;;;5019594;28;20493;-78
2023/04/21 09:42:58;;;;;;;23.90;21.30;;;14.90;1.00;;;;;;5014310;28;20569;-83
2023/04/21 09:45:27;;;;;;;24.60;19.90;;;14.60;1.00;;;;;;5015762;28;20455;-81
2023/04/21 09:47:56;;;;;;;26.90;22.17;;;14.60;1.00;;;;;;5016781;28;20458;-83
2023/04/21 09:50:24;;;;;;;22.50;19.60;;;14.60;1.00;;;;;;5017998;28;20479;-82
2023/04/21 09:52:52;;;;;;;23.27;20.10;;;14.70;1.00;;;;;;5016867;28;20540;-82
2023/04/21 09:55:25;;;;;;;23.17;20.43;;;14.80;1.00;;;;;;5014872;28;20547;-83
2023/04/21 09:57:54;;;;;;;25.90;21.37;;;15.00;1.00;;;;;;5018017;28;20447;-83
2023/04/21 10:00:27;;;;;;;26.30;21.67;;;15.30;1.00;;;;;;5009609;28;20474;-83
2023/04/21 10:02:54;;;;;;;26.10;21.27;;;15.30;99.90;;;;;;5022528;28;20544;-85
2023/04/21 10:05:22;;;;;;;25.13;20.93;;;15.40;1.00;;;;;;5015831;28;20461;-83
2023/04/21 10:07:49;;;;;;;29.27;20.07;;;15.40;1.00;;;;;;5005799;28;20456;-83
2023/04/21 10:10:22;;;;;;;22.13;19.73;;;15.40;99.90;;;;;;5018489;28;20476;-84
2023/04/21 10:12:50;;;;;;;26.50;20.63;;;15.20;99.90;;;;;;5015375;28;20462;-83
2023/04/21 10:15:32;;;;;;;28.80;22.77;;;15.00;1.00;;;;;;5017797;28;20449;-84
2023/04/21 10:18:13;;;;;;;24.97;22.20;;;14.70;1.00;;;;;;5015364;28;20457;-84
2023/04/21 10:20:54;;;;;;;23.47;20.43;;;14.80;1.00;;;;;;5016831;28;20530;-83
2023/04/21 10:23:32;;;;;;;29.17;21.50;;;14.80;1.00;;;;;;5015486;28;20470;-83
2023/04/21 10:26:06;;;;;;;25.50;20.50;;;15.00;1.00;;;;;;5018401;28;20459;-84
2023/04/21 10:28:54;;;;;;;23.53;19.73;;;15.30;1.00;;;;;;5014916;28;20513;-81
2023/04/21 10:31:30;;;;;;;26.70;21.67;;;15.60;1.00;;;;;;5016539;28;20496;-83
2023/04/21 10:34:22;;;;;;;23.40;20.67;;;15.70;1.00;;;;;;5017219;28;20915;-83
2023/04/21 10:37:11;;;;;;;22.93;20.07;;;16.00;99.90;;;;;;5015095;28;20942;-82
2023/04/21 10:39:46;;;;;;;22.70;18.60;;;16.40;1.00;;;;;;4999062;28;20895;-82
2023/04/21 10:42:30;;;;;;;23.67;20.17;;;16.40;99.90;;;;;;5044001;22;20499;-80
2023/04/21 10:45:11;;;;;;;25.40;20.40;;;16.50;99.90;;;;;;5034901;28;20547;-80
2023/04/21 10:47:43;;;;;;;24.43;20.50;;;16.10;1.00;;;;;;5037227;28;20451;-80
2023/04/21 10:50:21;;;;;;;24.50;19.87;;;16.20;99.90;;;;;;5037504;28;20449;-80
2023/04/21 10:52:53;;;;;;;26.70;21.07;;;16.00;1.00;;;;;;5016316;28;20494;-80
2023/04/21 10:55:21;;;;;;;23.33;19.60;;;15.80;11.80;;;;;;5016049;28;20445;-80
2023/04/21 10:57:48;;;;;;;25.13;19.47;;;15.60;1.00;;;;;;5015320;28;20857;-80
2023/04/21 11:00:17;;;;;;;23.67;20.00;;;15.60;35.30;;;;;;5021469;28;20451;-80
2023/04/21 11:02:54;;;;;;;23.37;18.93;;;15.50;1.00;;;;;;5018107;28;20476;-80
2023/04/21 11:05:28;;;;;;;22.63;20.23;;;15.50;1.00;;;;;;5016013;28;20542;-81
2023/04/21 11:08:03;;;;;;;22.87;20.07;;;15.50;1.00;;;;;;5017819;28;20544;-80
2023/04/21 11:10:30;;;;;;;22.67;19.33;;;15.50;99.90;;;;;;5014702;28;20457;-80
2023/04/21 11:12:57;;;;;;;25.40;20.43;;;15.60;99.90;;;;;;5017255;28;20489;-81
2023/04/21 11:15:24;;;;;;;23.63;19.37;;;15.80;11.10;;;;;;5016429;28;20463;-79
2023/04/21 11:17:54;;;;;;;24.73;18.63;;;15.90;70.10;;;;;;5030101;28;20444;-79
2023/04/21 11:20:21;;;;;;;20.97;17.80;;;15.90;99.90;;;;;;5015703;28;20452;-79
2023/04/21 11:22:52;;;;;;;21.37;17.30;;;16.20;99.90;;;;;;5013070;28;20469;-79
2023/04/21 11:25:19;;;;;;;22.77;18.50;;;16.40;7.00;;;;;;5016328;28;20453;-79
2023/04/21 11:27:54;;;;;;;23.77;18.77;;;16.50;99.90;;;;;;5010352;28;20509;-77
2023/04/21 11:30:21;;;;;;;17.40;15.50;;;16.90;99.90;;;;;;5014704;28;20852;-79
2023/04/21 11:32:55;;;;;;;20.43;17.07;;;17.40;1.00;;;;;;5016631;28;20500;-77
2023/04/21 11:35:22;;;;;;;17.70;14.07;;;18.30;1.00;;;;;;5005528;28;20934;-77
2023/04/21 11:37:51;;;;;;;18.80;16.13;;;19.50;99.90;;;;;;5012227;28;20491;-77
2023/04/21 11:40:19;;;;;;;19.00;15.80;;;19.90;50.00;;;;;;5018142;28;20456;-78
2023/04/21 11:42:46;;;;;;;15.27;13.67;;;20.80;99.90;;;;;;5018787;28;20492;-77
2023/04/21 11:45:18;;;;;;;16.23;14.53;;;22.20;1.00;;;;;;5013299;28;20450;-77
2023/04/21 11:47:45;;;;;;;21.30;16.60;;;21.80;1.00;;;;;;5009973;28;20450;-80
2023/04/21 11:50:30;;;;;;;18.23;15.07;;;21.50;1.00;;;;;;5016685;28;20449;-78
2023/04/21 11:52:57;;;;;;;18.50;15.23;;;20.30;1.00;;;;;;5015954;28;20547;-77
2023/04/21 11:55:24;;;;;;;19.57;15.70;;;19.50;1.00;;;;;;5014587;28;20455;-77
2023/04/21 11:57:51;;;;;;;20.40;14.87;;;19.00;1.00;;;;;;5014677;28;20540;-76
2023/04/21 12:00:20;;;;;;;18.03;16.13;;;19.00;1.00;;;;;;5011900;28;20547;-77
2023/04/21 12:02:55;;;;;;;21.57;17.37;;;19.00;20.70;;;;;;5013662;28;20475;-77
2023/04/21 12:05:23;;;;;;;21.50;16.80;;;18.80;1.00;;;;;;5007699;28;20513;-77
2023/04/21 12:07:51;;;;;;;18.80;15.73;;;18.90;2.50;;;;;;5014125;28;20457;-78
2023/04/21 12:10:20;;;;;;;20.70;16.90;;;18.70;37.40;;;;;;5014429;28;21015;-77
2023/04/21 12:12:47;;;;;;;18.00;16.10;;;18.90;1.00;;;;;;5013782;28;20484;-77
2023/04/21 12:15:19;;;;;;;19.70;16.87;;;19.00;1.00;;;;;;5014080;28;20456;-77
2023/04/21 12:17:47;;;;;;;20.20;17.50;;;19.70;1.00;;;;;;5015384;28;20854;-78
2023/04/21 12:20:16;;;;;;;19.27;15.90;;;20.00;26.10;;;;;;5013335;28;20460;-77
2023/04/21 12:22:45;;;;;;;19.93;17.80;;;20.30;1.00;;;;;;5014331;28;21001;-78
2023/04/21 12:25:12;;;;;;;17.97;16.10;;;20.00;1.00;;;;;;5015960;28;20454;-77
2023/04/21 12:27:48;;;;;;;18.97;16.57;;;19.60;1.00;;;;;;5014043;28;20467;-77
2023/04/21 12:30:15;;;;;;;21.50;17.73;;;19.40;1.00;;;;;;5008476;28;20463;-78
2023/04/21 12:32:41;;;;;;;18.77;16.77;;;19.40;1.00;;;;;;5013415;28;20955;-78
2023/04/21 12:35:09;;;;;;;17.90;15.77;;;19.60;1.00;;;;;;5022914;28;20464;-77
2023/04/21 12:37:36;;;;;;;17.43;15.57;;;20.40;1.00;;;;;;5011304;28;20970;-78
2023/04/21 12:40:05;;;;;;;18.53;16.73;;;22.80;1.00;;;;;;5009651;28;20454;-78
2023/04/21 12:42:32;;;;;;;17.57;15.60;;;23.90;1.00;;;;;;4998443;28;21396;-77